sensor_id;sensor_type;location;lat;lon;timestamp;P1;durP1;ratioP1;P2;durP2;ratioP2
16093;SDS011;8151;47.824;12.092;2024-01-15T00:01:42;5.20;;;3.47;;
16093;SDS011;8151;47.824;12.092;2024-01-15T00:04:11;4.40;;;3.93;;
16093;SDS011;8151;47.824;12.092;2024-01-15T00:06:40;5.83;;;4.63;;
16093;SDS011;8151;47.824;12.092;2024-01-15T00:09:09;6.20;;;4.20;;
16093;SDS011;8151;47.824;12.092;2024-01-15T00:11:38;5.10;;;3.87;;
16093;SDS011;8151;47.824;12.092;2024-01-15T00:14:08;8.50;;;3.87;;
16093;SDS011;8151;47.824;12.092;2024-01-15T00:16:36;4.53;;;3.60;;
16093;SDS011;8151;47.824;12.092;2024-01-15T00:19:05;6.57;;;4.30;;
16093;SDS011;8151;47.824;12.092;2024-01-15T00:21:33;5.57;;;3.97;;
16093;SDS011;8151;47.824;12.092;2024-01-15T00:24:02;5.00;;;4.03;;
16093;SDS011;8151;47.824;12.092;2024-01-15T00:26:31;7.80;;;4.20;;
16093;SDS011;8151;47.824;12.092;2024-01-15T00:29:00;5.37;;;4.03;;
16093;SDS011;8151;47.824;12.092;2024-01-15T00:31:30;4.97;;;3.90;;
16093;SDS011;8151;47.824;12.092;2024-01-15T00:33:58;4.60;;;3.87;;
16093;SDS011;8151;47.824;12.092;2024-01-15T00:36:27;4.60;;;3.67;;
16093;SDS011;8151;47.824;12.092;2024-01-15T00:38:55;4.70;;;4.00;;
16093;SDS011;8151;47.824;12.092;2024-01-15T00:41:24;6.43;;;4.20;;
16093;SDS011;8151;47.824;12.092;2024-01-15T00:43:54;5.33;;;3.83;;
16093;SDS011;8151;47.824;12.092;2024-01-15T00:46:24;6.27;;;4.33;;
16093;SDS011;8151;47.824;12.092;2024-01-15T00:48:52;5.73;;;4.23;;
16093;SDS011;8151;47.824;12.092;2024-01-15T00:51:21;4.20;;;3.70;;
16093;SDS011;8151;47.824;12.092;2024-01-15T00:53:50;6.47;;;4.47;;
16093;SDS011;8151;47.824;12.092;2024-01-15T00:56:18;5.27;;;3.97;;
16093;SDS011;8151;47.824;12.092;2024-01-15T00:58:46;6.57;;;4.13;;
16093;SDS011;8151;47.824;12.092;2024-01-15T01:01:15;6.00;;;3.57;;
16093;SDS011;8151;47.824;12.092;2024-01-15T01:03:45;5.70;;;4.40;;
16093;SDS011;8151;47.824;12.092;2024-01-15T01:06:13;4.57;;;3.53;;
16093;SDS011;8151;47.824;12.092;2024-01-15T01:08:42;3.83;;;3.37;;
16093;SDS011;8151;47.824;12.092;2024-01-15T01:11:12;5.90;;;3.60;;
16093;SDS011;8151;47.824;12.092;2024-01-15T01:13:41;4.43;;;3.53;;
16093;SDS011;8151;47.824;12.092;2024-01-15T01:16:09;7.70;;;4.13;;
16093;SDS011;8151;47.824;12.092;2024-01-15T01:18:38;5.57;;;3.90;;
16093;SDS011;8151;47.824;12.092;2024-01-15T01:21:08;9.67;;;6.33;;
16093;SDS011;8151;47.824;12.092;2024-01-15T01:23:36;8.53;;;5.73;;
16093;SDS011;8151;47.824;12.092;2024-01-15T01:26:05;6.67;;;4.43;;
16093;SDS011;8151;47.824;12.092;2024-01-15T01:28:33;7.00;;;4.50;;
16093;SDS011;8151;47.824;12.092;2024-01-15T01:31:02;6.30;;;4.20;;
16093;SDS011;8151;47.824;12.092;2024-01-15T01:33:30;6.27;;;4.10;;
16093;SDS011;8151;47.824;12.092;2024-01-15T01:35:59;6.47;;;4.27;;
16093;SDS011;8151;47.824;12.092;2024-01-15T01:38:29;6.80;;;4.27;;
16093;SDS011;8151;47.824;12.092;2024-01-15T01:40:57;5.50;;;4.50;;
16093;SDS011;8151;47.824;12.092;2024-01-15T01:43:25;5.37;;;4.57;;
16093;SDS011;8151;47.824;12.092;2024-01-15T01:45:54;5.53;;;4.20;;
16093;SDS011;8151;47.824;12.092;2024-01-15T01:48:25;8.50;;;4.10;;
16093;SDS011;8151;47.824;12.092;2024-01-15T01:50:53;6.07;;;3.80;;
16093;SDS011;8151;47.824;12.092;2024-01-15T01:53:24;6.30;;;4.20;;
16093;SDS011;8151;47.824;12.092;2024-01-15T01:55:55;4.77;;;3.90;;
16093;SDS011;8151;47.824;12.092;2024-01-15T01:58:25;6.10;;;4.37;;
16093;SDS011;8151;47.824;12.092;2024-01-15T02:00:54;6.23;;;3.90;;
16093;SDS011;8151;47.824;12.092;2024-01-15T02:03:22;7.40;;;3.87;;
16093;SDS011;8151;47.824;12.092;2024-01-15T02:05:51;4.93;;;3.87;;
16093;SDS011;8151;47.824;12.092;2024-01-15T02:08:20;6.23;;;4.73;;
16093;SDS011;8151;47.824;12.092;2024-01-15T02:10:49;9.50;;;4.70;;
16093;SDS011;8151;47.824;12.092;2024-01-15T02:13:19;6.63;;;4.73;;
16093;SDS011;8151;47.824;12.092;2024-01-15T02:15:48;6.67;;;4.40;;
16093;SDS011;8151;47.824;12.092;2024-01-15T02:18:17;6.23;;;4.10;;
16093;SDS011;8151;47.824;12.092;2024-01-15T02:20:45;5.60;;;4.00;;
16093;SDS011;8151;47.824;12.092;2024-01-15T02:23:15;9.37;;;4.50;;
16093;SDS011;8151;47.824;12.092;2024-01-15T02:25:45;6.93;;;4.30;;
16093;SDS011;8151;47.824;12.092;2024-01-15T02:28:14;4.73;;;4.00;;
16093;SDS011;8151;47.824;12.092;2024-01-15T02:30:44;8.67;;;4.80;;
16093;SDS011;8151;47.824;12.092;2024-01-15T02:33:13;8.63;;;4.10;;
16093;SDS011;8151;47.824;12.092;2024-01-15T02:35:41;6.97;;;4.30;;
16093;SDS011;8151;47.824;12.092;2024-01-15T02:38:10;5.77;;;3.93;;
16093;SDS011;8151;47.824;12.092;2024-01-15T02:40:39;8.77;;;4.33;;
16093;SDS011;8151;47.824;12.092;2024-01-15T02:43:08;5.20;;;3.93;;
16093;SDS011;8151;47.824;12.092;2024-01-15T02:45:36;6.37;;;3.50;;
16093;SDS011;8151;47.824;12.092;2024-01-15T02:48:05;6.37;;;4.03;;
16093;SDS011;8151;47.824;12.092;2024-01-15T02:50:34;5.83;;;4.20;;
16093;SDS011;8151;47.824;12.092;2024-01-15T02:53:03;6.57;;;4.57;;
16093;SDS011;8151;47.824;12.092;2024-01-15T02:55:31;6.57;;;3.67;;
16093;SDS011;8151;47.824;12.092;2024-01-15T02:58:01;7.17;;;4.20;;
16093;SDS011;8151;47.824;12.092;2024-01-15T03:00:30;8.60;;;4.23;;
16093;SDS011;8151;47.824;12.092;2024-01-15T03:02:58;7.27;;;4.30;;
16093;SDS011;8151;47.824;12.092;2024-01-15T03:05:27;9.03;;;5.00;;
16093;SDS011;8151;47.824;12.092;2024-01-15T03:07:55;10.70;;;4.97;;
16093;SDS011;8151;47.824;12.092;2024-01-15T03:10:24;7.27;;;4.80;;
16093;SDS011;8151;47.824;12.092;2024-01-15T03:12:52;12.70;;;5.40;;
16093;SDS011;8151;47.824;12.092;2024-01-15T03:15:22;8.67;;;4.97;;
16093;SDS011;8151;47.824;12.092;2024-01-15T03:17:50;10.03;;;5.03;;
16093;SDS011;8151;47.824;12.092;2024-01-15T03:20:19;9.40;;;4.70;;
16093;SDS011;8151;47.824;12.092;2024-01-15T03:22:47;6.37;;;4.37;;
16093;SDS011;8151;47.824;12.092;2024-01-15T03:25:16;7.93;;;5.10;;
16093;SDS011;8151;47.824;12.092;2024-01-15T03:27:44;7.20;;;4.73;;
16093;SDS011;8151;47.824;12.092;2024-01-15T03:30:12;7.47;;;4.30;;
16093;SDS011;8151;47.824;12.092;2024-01-15T03:32:43;8.33;;;4.77;;
16093;SDS011;8151;47.824;12.092;2024-01-15T03:35:11;7.67;;;4.63;;
16093;SDS011;8151;47.824;12.092;2024-01-15T03:37:40;9.93;;;4.73;;
16093;SDS011;8151;47.824;12.092;2024-01-15T03:40:09;8.03;;;4.60;;
16093;SDS011;8151;47.824;12.092;2024-01-15T03:42:38;8.70;;;4.57;;
16093;SDS011;8151;47.824;12.092;2024-01-15T03:45:07;7.43;;;4.87;;
16093;SDS011;8151;47.824;12.092;2024-01-15T03:47:35;6.63;;;4.13;;
16093;SDS011;8151;47.824;12.092;2024-01-15T03:50:05;8.03;;;4.33;;
16093;SDS011;8151;47.824;12.092;2024-01-15T03:52:34;8.10;;;4.60;;
16093;SDS011;8151;47.824;12.092;2024-01-15T03:55:03;5.80;;;4.03;;
16093;SDS011;8151;47.824;12.092;2024-01-15T03:57:32;6.93;;;4.07;;
16093;SDS011;8151;47.824;12.092;2024-01-15T04:00:01;6.57;;;4.17;;
16093;SDS011;8151;47.824;12.092;2024-01-15T04:02:30;7.10;;;4.20;;
16093;SDS011;8151;47.824;12.092;2024-01-15T04:04:58;6.80;;;4.17;;
16093;SDS011;8151;47.824;12.092;2024-01-15T04:07:30;7.70;;;3.90;;
16093;SDS011;8151;47.824;12.092;2024-01-15T04:09:58;7.10;;;3.90;;
16093;SDS011;8151;47.824;12.092;2024-01-15T04:12:27;6.80;;;4.07;;
16093;SDS011;8151;47.824;12.092;2024-01-15T04:14:55;5.97;;;3.30;;
16093;SDS011;8151;47.824;12.092;2024-01-15T04:17:24;6.77;;;3.43;;
16093;SDS011;8151;47.824;12.092;2024-01-15T04:19:52;5.50;;;3.23;;
16093;SDS011;8151;47.824;12.092;2024-01-15T04:22:21;5.47;;;3.50;;
16093;SDS011;8151;47.824;12.092;2024-01-15T04:24:50;6.47;;;3.20;;
16093;SDS011;8151;47.824;12.092;2024-01-15T04:27:19;5.87;;;3.57;;
16093;SDS011;8151;47.824;12.092;2024-01-15T04:29:48;6.30;;;3.73;;
16093;SDS011;8151;47.824;12.092;2024-01-15T04:32:16;4.77;;;3.13;;
16093;SDS011;8151;47.824;12.092;2024-01-15T04:34:45;5.77;;;2.83;;
16093;SDS011;8151;47.824;12.092;2024-01-15T04:37:13;5.57;;;3.67;;
16093;SDS011;8151;47.824;12.092;2024-01-15T04:39:42;5.80;;;3.30;;
16093;SDS011;8151;47.824;12.092;2024-01-15T04:42:12;5.70;;;3.10;;
16093;SDS011;8151;47.824;12.092;2024-01-15T04:44:40;4.83;;;2.77;;
16093;SDS011;8151;47.824;12.092;2024-01-15T04:47:09;4.20;;;3.17;;
16093;SDS011;8151;47.824;12.092;2024-01-15T04:49:37;5.43;;;3.20;;
16093;SDS011;8151;47.824;12.092;2024-01-15T04:52:05;5.67;;;3.13;;
16093;SDS011;8151;47.824;12.092;2024-01-15T04:54:37;5.23;;;2.93;;
16093;SDS011;8151;47.824;12.092;2024-01-15T04:57:05;6.63;;;3.07;;
16093;SDS011;8151;47.824;12.092;2024-01-15T04:59:35;4.23;;;3.00;;
16093;SDS011;8151;47.824;12.092;2024-01-15T05:02:03;4.27;;;3.07;;
16093;SDS011;8151;47.824;12.092;2024-01-15T05:04:32;5.87;;;3.30;;
16093;SDS011;8151;47.824;12.092;2024-01-15T05:07:00;4.87;;;3.20;;
16093;SDS011;8151;47.824;12.092;2024-01-15T05:09:29;3.37;;;3.00;;
16093;SDS011;8151;47.824;12.092;2024-01-15T05:11:59;6.37;;;3.17;;
16093;SDS011;8151;47.824;12.092;2024-01-15T05:14:27;6.33;;;3.10;;
16093;SDS011;8151;47.824;12.092;2024-01-15T05:16:57;4.10;;;2.67;;
16093;SDS011;8151;47.824;12.092;2024-01-15T05:19:25;5.80;;;3.37;;
16093;SDS011;8151;47.824;12.092;2024-01-15T05:21:54;4.50;;;3.20;;
16093;SDS011;8151;47.824;12.092;2024-01-15T05:24:23;5.33;;;3.23;;
16093;SDS011;8151;47.824;12.092;2024-01-15T05:26:53;5.87;;;3.40;;
16093;SDS011;8151;47.824;12.092;2024-01-15T05:29:21;4.50;;;3.07;;
16093;SDS011;8151;47.824;12.092;2024-01-15T05:31:50;5.10;;;3.20;;
16093;SDS011;8151;47.824;12.092;2024-01-15T05:34:20;5.87;;;3.60;;
16093;SDS011;8151;47.824;12.092;2024-01-15T05:36:48;4.90;;;3.20;;
16093;SDS011;8151;47.824;12.092;2024-01-15T05:39:16;3.50;;;2.50;;
16093;SDS011;8151;47.824;12.092;2024-01-15T05:41:48;4.77;;;3.13;;
16093;SDS011;8151;47.824;12.092;2024-01-15T05:44:16;7.07;;;3.27;;
16093;SDS011;8151;47.824;12.092;2024-01-15T05:46:44;3.90;;;3.13;;
16093;SDS011;8151;47.824;12.092;2024-01-15T05:49:13;7.47;;;3.90;;
16093;SDS011;8151;47.824;12.092;2024-01-15T05:51:43;4.53;;;3.03;;
16093;SDS011;8151;47.824;12.092;2024-01-15T05:54:12;4.33;;;3.13;;
16093;SDS011;8151;47.824;12.092;2024-01-15T05:56:40;3.67;;;3.30;;
16093;SDS011;8151;47.824;12.092;2024-01-15T05:59:08;6.27;;;3.53;;
16093;SDS011;8151;47.824;12.092;2024-01-15T06:01:41;7.83;;;3.50;;
16093;SDS011;8151;47.824;12.092;2024-01-15T06:04:10;5.33;;;3.20;;
16093;SDS011;8151;47.824;12.092;2024-01-15T06:06:38;4.63;;;3.33;;
16093;SDS011;8151;47.824;12.092;2024-01-15T06:09:08;4.83;;;3.03;;
16093;SDS011;8151;47.824;12.092;2024-01-15T06:11:37;5.73;;;3.07;;
16093;SDS011;8151;47.824;12.092;2024-01-15T06:14:05;3.77;;;2.63;;
16093;SDS011;8151;47.824;12.092;2024-01-15T06:16:33;4.30;;;2.80;;
16093;SDS011;8151;47.824;12.092;2024-01-15T06:19:02;3.90;;;3.00;;
16093;SDS011;8151;47.824;12.092;2024-01-15T06:21:31;6.07;;;3.50;;
16093;SDS011;8151;47.824;12.092;2024-01-15T06:23:59;5.43;;;2.90;;
16093;SDS011;8151;47.824;12.092;2024-01-15T06:26:29;3.83;;;2.90;;
16093;SDS011;8151;47.824;12.092;2024-01-15T06:28:57;4.27;;;2.90;;
16093;SDS011;8151;47.824;12.092;2024-01-15T06:31:26;7.13;;;3.93;;
16093;SDS011;8151;47.824;12.092;2024-01-15T06:33:55;10.37;;;5.37;;
16093;SDS011;8151;47.824;12.092;2024-01-15T06:36:23;10.07;;;5.70;;
16093;SDS011;8151;47.824;12.092;2024-01-15T06:38:52;7.37;;;4.93;;
16093;SDS011;8151;47.824;12.092;2024-01-15T06:41:20;6.53;;;4.20;;
16093;SDS011;8151;47.824;12.092;2024-01-15T06:43:50;5.17;;;4.17;;
16093;SDS011;8151;47.824;12.092;2024-01-15T06:46:22;6.10;;;3.83;;
16093;SDS011;8151;47.824;12.092;2024-01-15T06:48:51;6.90;;;3.07;;
16093;SDS011;8151;47.824;12.092;2024-01-15T06:51:19;7.13;;;3.50;;
16093;SDS011;8151;47.824;12.092;2024-01-15T06:53:48;6.93;;;3.80;;
16093;SDS011;8151;47.824;12.092;2024-01-15T06:56:16;12.13;;;5.23;;
16093;SDS011;8151;47.824;12.092;2024-01-15T06:58:44;8.70;;;4.50;;
16093;SDS011;8151;47.824;12.092;2024-01-15T07:01:14;5.90;;;3.47;;
16093;SDS011;8151;47.824;12.092;2024-01-15T07:03:43;4.10;;;2.73;;
16093;SDS011;8151;47.824;12.092;2024-01-15T07:06:12;7.10;;;3.30;;
16093;SDS011;8151;47.824;12.092;2024-01-15T07:08:41;4.20;;;3.30;;
16093;SDS011;8151;47.824;12.092;2024-01-15T07:11:09;6.83;;;3.77;;
16093;SDS011;8151;47.824;12.092;2024-01-15T07:13:37;4.67;;;3.20;;
16093;SDS011;8151;47.824;12.092;2024-01-15T07:16:06;5.40;;;2.77;;
16093;SDS011;8151;47.824;12.092;2024-01-15T07:18:36;4.80;;;2.50;;
16093;SDS011;8151;47.824;12.092;2024-01-15T07:21:04;5.63;;;2.90;;
16093;SDS011;8151;47.824;12.092;2024-01-15T07:23:33;4.43;;;2.80;;
16093;SDS011;8151;47.824;12.092;2024-01-15T07:26:01;3.67;;;2.70;;
16093;SDS011;8151;47.824;12.092;2024-01-15T07:28:30;7.53;;;2.97;;
16093;SDS011;8151;47.824;12.092;2024-01-15T07:30:58;4.43;;;2.67;;
16093;SDS011;8151;47.824;12.092;2024-01-15T07:33:28;5.07;;;3.30;;
16093;SDS011;8151;47.824;12.092;2024-01-15T07:35:58;7.73;;;3.27;;
16093;SDS011;8151;47.824;12.092;2024-01-15T07:38:29;4.27;;;2.90;;
16093;SDS011;8151;47.824;12.092;2024-01-15T07:40:58;3.63;;;2.67;;
16093;SDS011;8151;47.824;12.092;2024-01-15T07:43:26;3.83;;;2.80;;
16093;SDS011;8151;47.824;12.092;2024-01-15T07:45:55;4.47;;;2.97;;
16093;SDS011;8151;47.824;12.092;2024-01-15T07:48:25;3.57;;;2.80;;
16093;SDS011;8151;47.824;12.092;2024-01-15T07:50:55;4.87;;;2.90;;
16093;SDS011;8151;47.824;12.092;2024-01-15T07:53:25;4.47;;;3.07;;
16093;SDS011;8151;47.824;12.092;2024-01-15T07:55:54;4.60;;;3.30;;
16093;SDS011;8151;47.824;12.092;2024-01-15T07:58:23;4.37;;;2.90;;
16093;SDS011;8151;47.824;12.092;2024-01-15T08:00:51;4.77;;;3.10;;
16093;SDS011;8151;47.824;12.092;2024-01-15T08:03:20;4.93;;;2.90;;
16093;SDS011;8151;47.824;12.092;2024-01-15T08:05:48;4.60;;;2.93;;
16093;SDS011;8151;47.824;12.092;2024-01-15T08:08:19;3.87;;;2.87;;
16093;SDS011;8151;47.824;12.092;2024-01-15T08:10:51;4.90;;;2.83;;
16093;SDS011;8151;47.824;12.092;2024-01-15T08:13:20;4.07;;;2.73;;
16093;SDS011;8151;47.824;12.092;2024-01-15T08:15:48;4.30;;;3.20;;
16093;SDS011;8151;47.824;12.092;2024-01-15T08:18:17;4.43;;;3.03;;
16093;SDS011;8151;47.824;12.092;2024-01-15T08:20:45;7.90;;;4.20;;
16093;SDS011;8151;47.824;12.092;2024-01-15T08:23:14;23.77;;;9.70;;
16093;SDS011;8151;47.824;12.092;2024-01-15T08:25:43;8.43;;;4.10;;
16093;SDS011;8151;47.824;12.092;2024-01-15T08:28:13;13.80;;;6.67;;
16093;SDS011;8151;47.824;12.092;2024-01-15T08:30:41;24.93;;;11.57;;
16093;SDS011;8151;47.824;12.092;2024-01-15T08:33:10;8.57;;;5.30;;
16093;SDS011;8151;47.824;12.092;2024-01-15T08:35:48;12.13;;;6.30;;
16093;SDS011;8151;47.824;12.092;2024-01-15T08:38:16;8.90;;;4.60;;
16093;SDS011;8151;47.824;12.092;2024-01-15T08:40:44;4.40;;;3.20;;
16093;SDS011;8151;47.824;12.092;2024-01-15T08:43:13;7.77;;;3.97;;
16093;SDS011;8151;47.824;12.092;2024-01-15T08:45:42;9.97;;;3.77;;
16093;SDS011;8151;47.824;12.092;2024-01-15T08:48:11;5.77;;;3.57;;
16093;SDS011;8151;47.824;12.092;2024-01-15T08:50:39;3.20;;;2.77;;
16093;SDS011;8151;47.824;12.092;2024-01-15T08:53:08;6.93;;;3.47;;
16093;SDS011;8151;47.824;12.092;2024-01-15T08:55:36;6.23;;;3.87;;
16093;SDS011;8151;47.824;12.092;2024-01-15T08:58:04;5.20;;;3.53;;
16093;SDS011;8151;47.824;12.092;2024-01-15T09:00:35;5.40;;;3.77;;
16093;SDS011;8151;47.824;12.092;2024-01-15T09:03:04;6.43;;;4.00;;
16093;SDS011;8151;47.824;12.092;2024-01-15T09:05:32;5.33;;;3.63;;
16093;SDS011;8151;47.824;12.092;2024-01-15T09:08:01;10.70;;;6.03;;
16093;SDS011;8151;47.824;12.092;2024-01-15T09:10:29;6.10;;;4.20;;
16093;SDS011;8151;47.824;12.092;2024-01-15T09:12:58;4.90;;;3.30;;
16093;SDS011;8151;47.824;12.092;2024-01-15T09:15:27;5.37;;;3.37;;
16093;SDS011;8151;47.824;12.092;2024-01-15T09:17:57;4.97;;;3.20;;
16093;SDS011;8151;47.824;12.092;2024-01-15T09:20:26;5.13;;;3.50;;
16093;SDS011;8151;47.824;12.092;2024-01-15T09:22:55;4.67;;;3.27;;
16093;SDS011;8151;47.824;12.092;2024-01-15T09:25:23;6.27;;;3.80;;
16093;SDS011;8151;47.824;12.092;2024-01-15T09:27:52;7.60;;;4.27;;
16093;SDS011;8151;47.824;12.092;2024-01-15T09:30:20;7.93;;;3.07;;
16093;SDS011;8151;47.824;12.092;2024-01-15T09:32:49;5.43;;;3.80;;
16093;SDS011;8151;47.824;12.092;2024-01-15T09:35:19;5.97;;;4.10;;
16093;SDS011;8151;47.824;12.092;2024-01-15T09:37:50;5.97;;;3.17;;
16093;SDS011;8151;47.824;12.092;2024-01-15T09:40:19;6.20;;;3.57;;
16093;SDS011;8151;47.824;12.092;2024-01-15T09:42:49;7.83;;;4.50;;
16093;SDS011;8151;47.824;12.092;2024-01-15T09:45:18;6.33;;;3.37;;
16093;SDS011;8151;47.824;12.092;2024-01-15T09:47:47;5.73;;;3.13;;
16093;SDS011;8151;47.824;12.092;2024-01-15T09:50:16;7.63;;;3.53;;
16093;SDS011;8151;47.824;12.092;2024-01-15T09:52:46;6.27;;;3.40;;
16093;SDS011;8151;47.824;12.092;2024-01-15T09:55:17;6.13;;;3.53;;
16093;SDS011;8151;47.824;12.092;2024-01-15T09:57:45;7.10;;;4.00;;
16093;SDS011;8151;47.824;12.092;2024-01-15T10:00:14;6.67;;;3.97;;
16093;SDS011;8151;47.824;12.092;2024-01-15T10:02:45;8.63;;;4.40;;
16093;SDS011;8151;47.824;12.092;2024-01-15T10:05:14;5.27;;;3.50;;
16093;SDS011;8151;47.824;12.092;2024-01-15T10:07:42;7.43;;;3.83;;
16093;SDS011;8151;47.824;12.092;2024-01-15T10:10:15;6.07;;;3.70;;
16093;SDS011;8151;47.824;12.092;2024-01-15T10:12:43;9.80;;;4.23;;
16093;SDS011;8151;47.824;12.092;2024-01-15T10:15:12;8.33;;;4.87;;
16093;SDS011;8151;47.824;12.092;2024-01-15T10:17:40;10.73;;;4.53;;
16093;SDS011;8151;47.824;12.092;2024-01-15T10:20:10;6.93;;;4.37;;
16093;SDS011;8151;47.824;12.092;2024-01-15T10:22:40;9.97;;;4.83;;
16093;SDS011;8151;47.824;12.092;2024-01-15T10:25:10;6.13;;;4.10;;
16093;SDS011;8151;47.824;12.092;2024-01-15T10:27:40;7.13;;;4.80;;
16093;SDS011;8151;47.824;12.092;2024-01-15T10:30:09;9.03;;;5.13;;
16093;SDS011;8151;47.824;12.092;2024-01-15T10:32:41;9.10;;;5.03;;
16093;SDS011;8151;47.824;12.092;2024-01-15T10:35:09;8.33;;;4.67;;
16093;SDS011;8151;47.824;12.092;2024-01-15T10:37:38;6.27;;;4.10;;
16093;SDS011;8151;47.824;12.092;2024-01-15T10:40:07;8.10;;;4.23;;
16093;SDS011;8151;47.824;12.092;2024-01-15T10:42:36;7.57;;;4.47;;
16093;SDS011;8151;47.824;12.092;2024-01-15T10:45:07;7.20;;;4.00;;
16093;SDS011;8151;47.824;12.092;2024-01-15T10:47:36;5.83;;;3.80;;
16093;SDS011;8151;47.824;12.092;2024-01-15T10:50:06;7.53;;;3.37;;
16093;SDS011;8151;47.824;12.092;2024-01-15T10:52:35;6.20;;;3.70;;
16093;SDS011;8151;47.824;12.092;2024-01-15T10:55:04;4.77;;;3.60;;
16093;SDS011;8151;47.824;12.092;2024-01-15T10:57:41;5.47;;;3.63;;
16093;SDS011;8151;47.824;12.092;2024-01-15T11:00:15;5.10;;;3.83;;
16093;SDS011;8151;47.824;12.092;2024-01-15T11:02:45;9.57;;;4.30;;
16093;SDS011;8151;47.824;12.092;2024-01-15T11:05:14;5.00;;;3.40;;
16093;SDS011;8151;47.824;12.092;2024-01-15T11:07:44;5.07;;;3.00;;
16093;SDS011;8151;47.824;12.092;2024-01-15T11:13:07;8.43;;;2.93;;
16093;SDS011;8151;47.824;12.092;2024-01-15T11:18:27;3.73;;;2.70;;
16093;SDS011;8151;47.824;12.092;2024-01-15T11:23:53;4.07;;;3.00;;
16093;SDS011;8151;47.824;12.092;2024-01-15T11:26:27;8.87;;;5.27;;
16093;SDS011;8151;47.824;12.092;2024-01-15T11:28:57;3.80;;;2.57;;
16093;SDS011;8151;47.824;12.092;2024-01-15T11:31:29;2.10;;;1.87;;
16093;SDS011;8151;47.824;12.092;2024-01-15T11:34:18;4.90;;;3.30;;
16093;SDS011;8151;47.824;12.092;2024-01-15T11:37:01;3.87;;;2.40;;
16093;SDS011;8151;47.824;12.092;2024-01-15T11:39:39;4.43;;;2.23;;
16093;SDS011;8151;47.824;12.092;2024-01-15T11:42:10;6.67;;;2.50;;
16093;SDS011;8151;47.824;12.092;2024-01-15T11:44:40;5.13;;;3.40;;
16093;SDS011;8151;47.824;12.092;2024-01-15T11:47:10;5.13;;;4.00;;
16093;SDS011;8151;47.824;12.092;2024-01-15T11:50:01;10.17;;;3.13;;
16093;SDS011;8151;47.824;12.092;2024-01-15T11:52:32;6.77;;;3.30;;
16093;SDS011;8151;47.824;12.092;2024-01-15T11:55:07;8.47;;;3.07;;
16093;SDS011;8151;47.824;12.092;2024-01-15T11:57:44;4.10;;;2.73;;
16093;SDS011;8151;47.824;12.092;2024-01-15T12:00:14;5.43;;;2.77;;
16093;SDS011;8151;47.824;12.092;2024-01-15T12:02:45;5.13;;;2.90;;
16093;SDS011;8151;47.824;12.092;2024-01-15T12:05:16;3.90;;;2.63;;
16093;SDS011;8151;47.824;12.092;2024-01-15T12:07:46;6.20;;;3.10;;
16093;SDS011;8151;47.824;12.092;2024-01-15T12:10:16;13.43;;;3.83;;
16093;SDS011;8151;47.824;12.092;2024-01-15T12:12:53;5.27;;;3.40;;
16093;SDS011;8151;47.824;12.092;2024-01-15T12:15:26;3.47;;;2.47;;
16093;SDS011;8151;47.824;12.092;2024-01-15T12:17:57;5.30;;;2.50;;
16093;SDS011;8151;47.824;12.092;2024-01-15T12:20:29;3.47;;;2.40;;
16093;SDS011;8151;47.824;12.092;2024-01-15T12:22:58;4.27;;;2.30;;
16093;SDS011;8151;47.824;12.092;2024-01-15T12:25:30;6.13;;;2.50;;
16093;SDS011;8151;47.824;12.092;2024-01-15T12:28:00;15.40;;;6.33;;
16093;SDS011;8151;47.824;12.092;2024-01-15T12:30:30;10.67;;;5.37;;
16093;SDS011;8151;47.824;12.092;2024-01-15T12:33:03;5.47;;;3.20;;
16093;SDS011;8151;47.824;12.092;2024-01-15T12:35:33;4.07;;;2.50;;
16093;SDS011;8151;47.824;12.092;2024-01-15T12:38:02;7.87;;;4.20;;
16093;SDS011;8151;47.824;12.092;2024-01-15T12:40:31;8.77;;;4.87;;
16093;SDS011;8151;47.824;12.092;2024-01-15T12:43:03;15.60;;;6.30;;
16093;SDS011;8151;47.824;12.092;2024-01-15T12:45:33;13.03;;;5.50;;
16093;SDS011;8151;47.824;12.092;2024-01-15T12:48:04;4.67;;;2.87;;
16093;SDS011;8151;47.824;12.092;2024-01-15T12:50:34;5.97;;;3.67;;
16093;SDS011;8151;47.824;12.092;2024-01-15T12:53:03;6.07;;;2.30;;
16093;SDS011;8151;47.824;12.092;2024-01-15T12:55:31;2.20;;;1.97;;
16093;SDS011;8151;47.824;12.092;2024-01-15T12:58:01;6.97;;;2.23;;
16093;SDS011;8151;47.824;12.092;2024-01-15T13:00:29;6.80;;;5.83;;
16093;SDS011;8151;47.824;12.092;2024-01-15T13:02:58;2.33;;;1.87;;
16093;SDS011;8151;47.824;12.092;2024-01-15T13:05:29;2.17;;;1.60;;
16093;SDS011;8151;47.824;12.092;2024-01-15T13:07:59;1.43;;;1.33;;
16093;SDS011;8151;47.824;12.092;2024-01-15T13:10:28;2.03;;;1.57;;
16093;SDS011;8151;47.824;12.092;2024-01-15T13:12:57;1.70;;;1.53;;
16093;SDS011;8151;47.824;12.092;2024-01-15T13:15:26;4.50;;;1.77;;
16093;SDS011;8151;47.824;12.092;2024-01-15T13:17:54;5.33;;;1.80;;
16093;SDS011;8151;47.824;12.092;2024-01-15T13:20:23;3.07;;;2.00;;
16093;SDS011;8151;47.824;12.092;2024-01-15T13:22:53;3.30;;;2.00;;
16093;SDS011;8151;47.824;12.092;2024-01-15T13:25:22;1.97;;;1.83;;
16093;SDS011;8151;47.824;12.092;2024-01-15T13:27:51;1.73;;;1.63;;
16093;SDS011;8151;47.824;12.092;2024-01-15T13:30:20;4.07;;;1.77;;
16093;SDS011;8151;47.824;12.092;2024-01-15T13:32:49;2.90;;;2.00;;
16093;SDS011;8151;47.824;12.092;2024-01-15T13:35:17;1.40;;;1.30;;
16093;SDS011;8151;47.824;12.092;2024-01-15T13:37:46;2.63;;;1.73;;
16093;SDS011;8151;47.824;12.092;2024-01-15T13:40:15;3.80;;;1.63;;
16093;SDS011;8151;47.824;12.092;2024-01-15T13:42:46;6.90;;;3.47;;
16093;SDS011;8151;47.824;12.092;2024-01-15T13:45:15;3.30;;;1.60;;
16093;SDS011;8151;47.824;12.092;2024-01-15T13:47:44;3.03;;;2.67;;
16093;SDS011;8151;47.824;12.092;2024-01-15T13:50:13;4.63;;;2.47;;
16093;SDS011;8151;47.824;12.092;2024-01-15T13:52:42;3.53;;;2.20;;
16093;SDS011;8151;47.824;12.092;2024-01-15T13:55:10;0.90;;;0.90;;
16093;SDS011;8151;47.824;12.092;2024-01-15T13:57:41;1.37;;;1.27;;
16093;SDS011;8151;47.824;12.092;2024-01-15T14:00:10;1.00;;;1.00;;
16093;SDS011;8151;47.824;12.092;2024-01-15T14:02:39;2.67;;;2.10;;
16093;SDS011;8151;47.824;12.092;2024-01-15T14:05:08;1.97;;;1.40;;
16093;SDS011;8151;47.824;12.092;2024-01-15T14:07:39;1.90;;;1.73;;
16093;SDS011;8151;47.824;12.092;2024-01-15T14:10:08;2.20;;;2.10;;
16093;SDS011;8151;47.824;12.092;2024-01-15T14:12:37;3.77;;;3.20;;
16093;SDS011;8151;47.824;12.092;2024-01-15T14:15:08;2.43;;;1.83;;
16093;SDS011;8151;47.824;12.092;2024-01-15T14:17:37;7.30;;;6.03;;
16093;SDS011;8151;47.824;12.092;2024-01-15T14:20:06;4.80;;;3.10;;
16093;SDS011;8151;47.824;12.092;2024-01-15T14:22:38;3.53;;;3.07;;
16093;SDS011;8151;47.824;12.092;2024-01-15T14:25:07;3.93;;;2.70;;
16093;SDS011;8151;47.824;12.092;2024-01-15T14:27:36;3.87;;;3.00;;
16093;SDS011;8151;47.824;12.092;2024-01-15T14:30:05;4.10;;;2.20;;
16093;SDS011;8151;47.824;12.092;2024-01-15T14:32:36;6.87;;;3.80;;
16093;SDS011;8151;47.824;12.092;2024-01-15T14:35:05;8.93;;;2.60;;
16093;SDS011;8151;47.824;12.092;2024-01-15T14:37:35;3.73;;;2.23;;
16093;SDS011;8151;47.824;12.092;2024-01-15T14:40:04;2.63;;;2.43;;
16093;SDS011;8151;47.824;12.092;2024-01-15T14:42:34;3.50;;;2.23;;
16093;SDS011;8151;47.824;12.092;2024-01-15T14:45:03;1.50;;;1.40;;
16093;SDS011;8151;47.824;12.092;2024-01-15T14:47:40;1.83;;;1.53;;
16093;SDS011;8151;47.824;12.092;2024-01-15T14:50:11;2.50;;;1.70;;
16093;SDS011;8151;47.824;12.092;2024-01-15T14:52:40;2.73;;;1.50;;
16093;SDS011;8151;47.824;12.092;2024-01-15T14:55:09;3.33;;;2.17;;
16093;SDS011;8151;47.824;12.092;2024-01-15T14:57:38;3.00;;;1.80;;
16093;SDS011;8151;47.824;12.092;2024-01-15T15:00:07;4.23;;;2.23;;
16093;SDS011;8151;47.824;12.092;2024-01-15T15:02:36;2.00;;;1.57;;
16093;SDS011;8151;47.824;12.092;2024-01-15T15:05:07;1.70;;;1.13;;
16093;SDS011;8151;47.824;12.092;2024-01-15T15:07:35;2.80;;;1.87;;
16093;SDS011;8151;47.824;12.092;2024-01-15T15:10:05;4.17;;;2.47;;